Time;durP1;ratioP1;P1;durP2;ratioP2;P2;SDS_P1;SDS_P2;PMS_P1;PMS_P2;Temp;Humidity;BMP_temperature;BMP_pressure;BME280_temperature;BME280_humidity;BME280_pressure;Samples;Min_cycle;Max_cycle;Signal;HPM_P1;HPM_P2
2022/09/15 00:00:57;;;;;;;;;;;14.30;99.90;;;;;;4991624;28;19917;-64
2022/09/15 00:03:24;;;;;;;;;;;14.40;99.90;;;;;;4999088;28;19921;-65
2022/09/15 00:05:52;;;;;;;;;;;14.30;99.90;;;;;;4999541;28;20462;-64
2022/09/15 00:08:19;;;;;;;;;;;14.30;99.90;;;;;;4995660;28;19925;-67
2022/09/15 00:10:49;;;;;;;;;;;14.30;99.90;;;;;;4994968;28;19918;-70
2022/09/15 00:13:16;;;;;;;;;;;14.30;99.90;;;;;;4995131;28;20016;-69
2022/09/15 00:15:43;;;;;;;;;;;14.30;99.90;;;;;;4995475;28;19922;-65
2022/09/15 00:18:10;;;;;;;;;;;14.30;99.90;;;;;;4999988;28;19922;-68
2022/09/15 00:20:41;;;;;;;;;;;14.30;99.90;;;;;;5000961;28;19926;-67
2022/09/15 00:23:09;;;;;;;;;;;14.30;99.90;;;;;;4996932;28;19917;-70
2022/09/15 00:25:46;;;;;;;;;;;14.30;99.90;;;;;;4994304;28;19922;-66
2022/09/15 00:28:13;;;;;;;;;;;14.20;99.90;;;;;;4997312;28;19922;-65
2022/09/15 00:30:44;;;;;;;;;;;14.30;99.90;;;;;;4989547;28;20289;-64
2022/09/15 00:33:12;;;;;;;;;;;14.20;99.90;;;;;;4987376;28;19933;-65
2022/09/15 00:35:39;;;;;;;;;;;14.20;99.90;;;;;;5000203;28;19975;-67
2022/09/15 00:38:08;;;;;;;;;;;14.20;99.90;;;;;;4990273;28;19922;-66
2022/09/15 00:40:46;;;;;;;;;;;14.20;99.90;;;;;;5006140;28;19943;-67
2022/09/15 00:43:14;;;;;;;;;;;14.10;99.90;;;;;;4997710;28;20255;-64
2022/09/15 00:45:41;;;;;;;;;;;14.10;99.90;;;;;;4995842;28;19917;-64
2022/09/15 00:48:10;;;;;;;;;;;14.10;99.90;;;;;;4995541;28;19917;-66
2022/09/15 00:50:38;;;;;;;;;;;14.10;99.90;;;;;;4997247;28;19917;-67
2022/09/15 00:53:07;;;;;;;;;;;14.10;99.90;;;;;;5002385;28;21250;-65
2022/09/15 00:55:41;;;;;;;;;;;14.10;99.90;;;;;;4995554;28;19928;-69
2022/09/15 00:58:10;;;;;;;;;;;14.10;99.90;;;;;;4992286;28;19925;-67
2022/09/15 01:00:42;;;;;;;;;;;14.10;99.90;;;;;;4997426;28;19922;-69
2022/09/15 01:03:09;;;;;;;;;;;14.00;99.90;;;;;;4991181;28;20025;-65
2022/09/15 01:05:42;;;;;;;;;;;14.00;99.90;;;;;;4997107;28;19917;-64
2022/09/15 01:08:13;;;;;;;;;;;14.10;99.90;;;;;;4996754;28;19936;-66
2022/09/15 01:10:40;;;;;;;;;;;14.00;99.90;;;;;;4989895;28;19974;-69
2022/09/15 01:13:09;;;;;;;;;;;14.00;99.90;;;;;;4992132;28;20023;-67
2022/09/15 01:15:43;;;;;;;;;;;14.00;99.90;;;;;;4989450;28;19928;-65
2022/09/15 01:18:13;;;;;;;;;;;14.00;99.90;;;;;;4992551;28;19918;-64
2022/09/15 01:20:58;;;;;;;;;;;14.10;99.90;;;;;;4993529;28;19921;-67
2022/09/15 01:23:31;;;;;;;;;;;14.00;99.90;;;;;;5000299;28;19979;-64
2022/09/15 01:26:07;;;;;;;;;;;14.00;99.90;;;;;;4998410;28;19976;-67
2022/09/15 01:28:40;;;;;;;;;;;14.00;99.90;;;;;;4996540;28;20017;-65
2022/09/15 01:31:32;;;;;;;;;;;14.00;99.90;;;;;;4990481;28;19921;-73
2022/09/15 01:34:11;;;;;;;;;;;14.00;99.90;;;;;;4987016;28;20365;-69
2022/09/15 01:36:46;;;;;;;;;;;14.00;99.90;;;;;;4989652;28;19922;-68
2022/09/15 01:39:16;;;;;;;;;;;14.00;99.90;;;;;;5000814;28;19924;-64
2022/09/15 01:41:49;;;;;;;;;;;14.00;99.90;;;;;;4999247;28;19944;-65
2022/09/15 01:44:23;;;;;;;;;;;14.00;99.90;;;;;;4997871;28;20337;-65
2022/09/15 01:46:55;;;;;;;;;;;14.00;99.90;;;;;;4996944;28;19922;-65
2022/09/15 01:49:25;;;;;;;;;;;14.00;99.90;;;;;;4998166;28;19929;-69
2022/09/15 01:51:53;;;;;;;;;;;14.00;99.90;;;;;;4990392;28;19971;-67
2022/09/15 01:54:28;;;;;;;;;;;14.00;99.90;;;;;;5000377;28;20032;-70
2022/09/15 01:56:56;;;;;;;;;;;14.00;99.90;;;;;;4988398;28;19918;-66
2022/09/15 01:59:22;;;;;;;;;;;14.00;99.90;;;;;;4990074;28;19917;-68
2022/09/15 02:01:50;;;;;;;;;;;14.00;99.90;;;;;;5000358;28;20024;-67
2022/09/15 02:04:40;;;;;;;;;;;14.00;99.90;;;;;;4994805;28;19924;-65
2022/09/15 02:07:13;;;;;;;;;;;14.10;99.90;;;;;;5001800;28;19921;-68
2022/09/15 02:09:45;;;;;;;;;;;14.00;99.90;;;;;;4996642;28;19961;-67
2022/09/15 02:12:41;;;;;;;;;;;14.00;99.90;;;;;;5002959;28;19953;-72
2022/09/15 02:15:13;;;;;;;;;;;14.00;99.90;;;;;;4992010;28;19922;-64
2022/09/15 02:17:42;;;;;;;;;;;14.00;99.90;;;;;;4994484;28;20317;-69
2022/09/15 02:20:15;;;;;;;;;;;14.00;99.90;;;;;;5006943;28;19933;-73
2022/09/15 02:22:46;;;;;;;;;;;14.00;99.90;;;;;;5000670;28;19923;-64
2022/09/15 02:25:15;;;;;;;;;;;14.00;99.90;;;;;;4997998;28;19921;-65
2022/09/15 02:27:44;;;;;;;;;;;14.00;99.90;;;;;;4992417;28;19944;-65
2022/09/15 02:30:13;;;;;;;;;;;14.00;99.90;;;;;;4998470;28;20026;-65
2022/09/15 02:32:46;;;;;;;;;;;14.00;99.90;;;;;;5002909;28;19932;-70
2022/09/15 02:35:13;;;;;;;;;;;14.00;99.90;;;;;;4991647;28;19918;-64
2022/09/15 02:37:40;;;;;;;;;;;14.00;99.90;;;;;;4998489;28;19917;-65
2022/09/15 02:40:08;;;;;;;;;;;14.00;99.90;;;;;;4999004;28;19922;-65
2022/09/15 02:42:34;;;;;;;;;;;14.00;99.90;;;;;;4998726;28;20644;-64
2022/09/15 02:45:02;;;;;;;;;;;14.00;99.90;;;;;;5006478;28;20395;-68
2022/09/15 02:47:29;;;;;;;;;;;14.00;99.90;;;;;;4998396;28;19952;-66
2022/09/15 02:49:56;;;;;;;;;;;14.00;99.90;;;;;;4996640;28;19918;-65
2022/09/15 02:52:23;;;;;;;;;;;14.00;99.90;;;;;;5003962;28;19918;-65
2022/09/15 02:54:50;;;;;;;;;;;13.90;99.90;;;;;;4997251;28;20344;-74
2022/09/15 02:57:16;;;;;;;;;;;13.90;99.90;;;;;;5001699;28;20004;-67
2022/09/15 03:02:29;;;;;;;;;;;13.80;99.90;;;;;;4996012;28;20325;-69
2022/09/15 03:04:56;;;;;;;;;;;13.80;99.90;;;;;;4993583;28;19921;-65
2022/09/15 03:07:23;;;;;;;;;;;13.80;99.90;;;;;;4994896;28;20464;-65
2022/09/15 03:09:50;;;;;;;;;;;13.80;99.90;;;;;;5006635;28;20426;-65
2022/09/15 03:12:17;;;;;;;;;;;13.80;99.90;;;;;;5005509;28;20011;-65
2022/09/15 03:14:45;;;;;;;;;;;13.70;99.90;;;;;;4990830;28;19922;-65
2022/09/15 03:17:12;;;;;;;;;;;13.70;99.90;;;;;;5002878;28;20041;-65
2022/09/15 03:19:39;;;;;;;;;;;13.70;99.90;;;;;;5001391;28;19976;-65
2022/09/15 03:22:06;;;;;;;;;;;13.70;99.90;;;;;;5002820;28;19922;-64
2022/09/15 03:24:32;;;;;;;;;;;13.60;99.90;;;;;;5000725;28;19928;-64
2022/09/15 03:26:59;;;;;;;;;;;13.60;99.90;;;;;;5014729;28;19927;-65
2022/09/15 03:29:26;;;;;;;;;;;13.60;99.90;;;;;;4994347;28;19931;-67
2022/09/15 03:31:53;;;;;;;;;;;13.60;99.90;;;;;;4992921;28;19928;-66
2022/09/15 03:34:20;;;;;;;;;;;13.60;99.90;;;;;;5001963;28;20355;-68
2022/09/15 03:36:46;;;;;;;;;;;13.60;99.90;;;;;;5004422;28;19953;-65
2022/09/15 03:39:13;;;;;;;;;;;13.60;99.90;;;;;;4995743;28;20016;-74
2022/09/15 03:41:40;;;;;;;;;;;13.60;99.90;;;;;;4990459;28;20523;-65
2022/09/15 03:44:07;;;;;;;;;;;13.60;99.90;;;;;;4998943;28;19929;-65
2022/09/15 03:46:34;;;;;;;;;;;13.60;99.90;;;;;;5003477;28;19984;-67
2022/09/15 03:49:01;;;;;;;;;;;13.60;99.90;;;;;;5000244;28;20276;-65
2022/09/15 03:51:27;;;;;;;;;;;13.60;99.90;;;;;;4996800;28;20239;-65
2022/09/15 03:53:54;;;;;;;;;;;13.60;99.90;;;;;;4994799;28;20579;-65
2022/09/15 03:56:31;;;;;;;;;;;13.60;99.90;;;;;;4999406;28;20017;-65
2022/09/15 03:58:59;;;;;;;;;;;13.60;99.90;;;;;;4990931;28;20085;-67
2022/09/15 04:01:26;;;;;;;;;;;13.60;99.90;;;;;;4995285;28;19924;-66
2022/09/15 04:03:53;;;;;;;;;;;13.60;99.90;;;;;;4991592;28;19924;-70
2022/09/15 04:06:21;;;;;;;;;;;13.60;99.90;;;;;;5006275;28;19928;-65
2022/09/15 04:08:48;;;;;;;;;;;13.60;99.90;;;;;;4990774;28;19917;-66
2022/09/15 04:11:15;;;;;;;;;;;13.60;99.90;;;;;;5000249;28;20024;-69
2022/09/15 04:13:42;;;;;;;;;;;13.60;99.90;;;;;;4994506;28;19924;-64
2022/09/15 04:16:11;;;;;;;;;;;13.60;99.90;;;;;;4996711;28;19929;-65
2022/09/15 04:18:38;;;;;;;;;;;13.50;99.90;;;;;;5001690;28;20005;-73
2022/09/15 04:21:06;;;;;;;;;;;13.50;99.90;;;;;;5005795;28;19927;-65
2022/09/15 04:23:33;;;;;;;;;;;13.50;99.90;;;;;;4993259;28;19940;-66
2022/09/15 04:26:02;;;;;;;;;;;13.50;99.90;;;;;;4993723;28;19933;-77
2022/09/15 04:28:30;;;;;;;;;;;13.50;99.90;;;;;;5001317;28;20035;-68
2022/09/15 04:31:04;;;;;;;;;;;13.50;99.90;;;;;;5005340;28;19921;-65
2022/09/15 04:33:32;;;;;;;;;;;13.50;99.90;;;;;;4996010;28;19975;-68
2022/09/15 04:36:03;;;;;;;;;;;13.50;99.90;;;;;;4997679;28;20217;-68
2022/09/15 04:38:30;;;;;;;;;;;13.50;99.90;;;;;;4998126;28;20007;-68
2022/09/15 04:40:57;;;;;;;;;;;13.60;99.90;;;;;;4995820;28;19917;-65
2022/09/15 04:43:25;;;;;;;;;;;13.60;99.90;;;;;;4999171;28;19922;-64
2022/09/15 04:45:53;;;;;;;;;;;13.60;99.90;;;;;;5000881;28;20039;-68
2022/09/15 04:48:20;;;;;;;;;;;13.60;99.90;;;;;;4990479;28;20376;-65
2022/09/15 04:50:47;;;;;;;;;;;13.60;99.90;;;;;;5003765;28;19924;-70
2022/09/15 04:53:14;;;;;;;;;;;13.60;99.90;;;;;;5001805;28;19918;-69
2022/09/15 04:55:41;;;;;;;;;;;13.70;99.90;;;;;;4992275;28;19924;-65
2022/09/15 04:58:08;;;;;;;;;;;13.60;99.90;;;;;;4992689;28;19940;-66
2022/09/15 05:00:41;;;;;;;;;;;13.60;99.90;;;;;;4991479;28;20005;-68
2022/09/15 05:03:12;;;;;;;;;;;13.60;99.90;;;;;;4998777;28;20010;-68
2022/09/15 05:05:39;;;;;;;;;;;13.60;99.90;;;;;;4992205;28;20246;-72
2022/09/15 05:08:07;;;;;;;;;;;13.60;99.90;;;;;;4990211;28;19921;-66
2022/09/15 05:10:33;;;;;;;;;;;13.60;99.90;;;;;;5022702;28;19922;-66
2022/09/15 05:13:00;;;;;;;;;;;13.60;99.90;;;;;;4987616;28;19928;-67
2022/09/15 05:15:27;;;;;;;;;;;13.60;99.90;;;;;;4995010;28;19964;-68
2022/09/15 05:17:54;;;;;;;;;;;13.50;99.90;;;;;;4987775;28;19928;-66
2022/09/15 05:20:21;;;;;;;;;;;13.50;99.90;;;;;;5000470;28;19918;-68
2022/09/15 05:22:48;;;;;;;;;;;13.50;99.90;;;;;;4993441;28;20015;-71
2022/09/15 05:25:15;;;;;;;;;;;13.50;99.90;;;;;;4994368;28;19918;-66
2022/09/15 05:27:41;;;;;;;;;;;13.60;99.90;;;;;;4993025;28;19980;-66
2022/09/15 05:30:09;;;;;;;;;;;13.60;99.90;;;;;;4995982;28;19922;-66
2022/09/15 05:32:55;;;;;;;;;;;13.70;99.90;;;;;;4994207;28;20380;-69
2022/09/15 05:35:22;;;;;;;;;;;13.60;99.90;;;;;;4997622;28;19929;-67
2022/09/15 05:37:49;;;;;;;;;;;13.60;99.90;;;;;;4998042;28;20166;-66
2022/09/15 05:40:16;;;;;;;;;;;13.70;99.90;;;;;;4998696;28;19929;-66
2022/09/15 05:42:43;;;;;;;;;;;13.60;99.90;;;;;;4994097;28;19940;-70
2022/09/15 05:45:09;;;;;;;;;;;13.60;99.90;;;;;;5001772;28;20676;-67
2022/09/15 05:47:36;;;;;;;;;;;13.60;99.90;;;;;;4993110;28;20411;-65
2022/09/15 05:50:03;;;;;;;;;;;13.60;99.90;;;;;;5000170;28;20451;-71
2022/09/15 05:52:30;;;;;;;;;;;13.60;99.90;;;;;;5000178;28;20012;-66
2022/09/15 05:54:57;;;;;;;;;;;13.70;99.90;;;;;;5001480;28;19917;-68
2022/09/15 05:57:25;;;;;;;;;;;13.80;99.90;;;;;;4995645;28;20252;-69
2022/09/15 05:59:52;;;;;;;;;;;13.80;99.90;;;;;;4980905;28;19924;-71
2022/09/15 06:02:19;;;;;;;;;;;13.80;99.90;;;;;;5002245;28;19971;-65
2022/09/15 06:04:46;;;;;;;;;;;13.90;99.90;;;;;;5002211;28;19917;-70
2022/09/15 06:07:12;;;;;;;;;;;13.80;99.90;;;;;;4996666;28;19917;-66
2022/09/15 06:09:41;;;;;;;;;;;13.80;99.90;;;;;;5006260;28;19946;-67
2022/09/15 06:12:07;;;;;;;;;;;13.80;99.90;;;;;;4992182;28;20354;-69
2022/09/15 06:14:34;;;;;;;;;;;13.80;99.90;;;;;;4992995;28;20036;-67
2022/09/15 06:17:01;;;;;;;;;;;13.80;99.90;;;;;;4997996;28;19957;-66
2022/09/15 06:19:28;;;;;;;;;;;13.80;99.90;;;;;;4990563;28;19917;-67
2022/09/15 06:21:54;;;;;;;;;;;13.90;99.90;;;;;;4995841;28;20503;-68
2022/09/15 06:24:21;;;;;;;;;;;13.90;99.90;;;;;;4991904;28;20322;-64
2022/09/15 06:26:48;;;;;;;;;;;13.80;99.90;;;;;;5003706;28;20032;-68
2022/09/15 06:29:15;;;;;;;;;;;13.70;99.90;;;;;;4989371;28;19918;-65
2022/09/15 06:31:42;;;;;;;;;;;13.70;99.90;;;;;;5000200;28;19922;-65
2022/09/15 06:34:10;;;;;;;;;;;13.70;99.90;;;;;;4996635;28;19978;-65
2022/09/15 06:36:55;;;;;;;;;;;13.60;99.90;;;;;;4997436;28;19945;-66
2022/09/15 06:39:21;;;;;;;;;;;13.60;99.90;;;;;;5000037;28;19926;-69
2022/09/15 06:41:48;;;;;;;;;;;13.60;99.90;;;;;;4992519;28;19917;-65
2022/09/15 06:44:28;;;;;;;;;;;13.50;99.90;;;;;;4993585;28;19921;-67
2022/09/15 06:46:55;;;;;;;;;;;13.50;99.90;;;;;;4998796;28;19918;-65
2022/09/15 06:49:22;;;;;;;;;;;13.60;99.90;;;;;;5002834;28;20442;-68
2022/09/15 06:51:49;;;;;;;;;;;13.70;99.90;;;;;;4988891;28;19928;-66
2022/09/15 06:54:16;;;;;;;;;;;13.70;99.90;;;;;;4996710;28;19917;-67
2022/09/15 06:56:42;;;;;;;;;;;13.60;99.90;;;;;;5006014;28;19937;-66
2022/09/15 06:59:10;;;;;;;;;;;13.70;99.90;;;;;;5008713;28;19928;-67
2022/09/15 07:01:37;;;;;;;;;;;13.70;99.90;;;;;;4995156;28;19918;-74
2022/09/15 07:04:05;;;;;;;;;;;13.70;99.90;;;;;;5005621;28;19921;-65
2022/09/15 07:06:32;;;;;;;;;;;13.70;99.90;;;;;;4997300;28;19995;-64
2022/09/15 07:09:01;;;;;;;;;;;13.70;99.90;;;;;;5001205;28;19917;-67
2022/09/15 07:11:28;;;;;;;;;;;13.80;99.90;;;;;;4997026;28;19917;-69
2022/09/15 07:13:54;;;;;;;;;;;13.90;99.90;;;;;;4995811;28;20028;-65
2022/09/15 07:16:22;;;;;;;;;;;13.90;99.90;;;;;;5004947;28;19976;-65
2022/09/15 07:18:48;;;;;;;;;;;14.00;99.90;;;;;;5031798;28;19930;-65
2022/09/15 07:21:19;;;;;;;;;;;14.10;99.90;;;;;;4989885;28;19921;-65
2022/09/15 07:23:46;;;;;;;;;;;14.10;99.90;;;;;;4988228;28;20336;-65
2022/09/15 07:26:15;;;;;;;;;;;14.20;99.90;;;;;;5007516;28;19963;-65
2022/09/15 07:28:42;;;;;;;;;;;14.10;99.90;;;;;;4991906;28;20094;-70
2022/09/15 07:31:11;;;;;;;;;;;14.10;99.90;;;;;;5006075;28;19962;-68
2022/09/15 07:33:38;;;;;;;;;;;14.10;99.90;;;;;;4994783;28;19922;-74
2022/09/15 07:36:06;;;;;;;;;;;14.10;99.90;;;;;;4993041;28;19918;-65
2022/09/15 07:38:33;;;;;;;;;;;14.00;99.90;;;;;;4999621;28;20400;-65
2022/09/15 07:41:07;;;;;;;;;;;14.10;99.90;;;;;;4997311;28;19917;-67
2022/09/15 07:43:34;;;;;;;;;;;14.00;99.90;;;;;;4995718;28;19957;-76
2022/09/15 07:46:01;;;;;;;;;;;14.00;99.90;;;;;;4994377;28;19922;-65
2022/09/15 07:48:28;;;;;;;;;;;14.00;99.90;;;;;;4999058;28;20021;-67
2022/09/15 07:50:55;;;;;;;;;;;14.00;99.90;;;;;;4992957;28;19922;-66
2022/09/15 07:53:22;;;;;;;;;;;14.00;99.90;;;;;;5000367;28;20053;-65
2022/09/15 07:55:53;;;;;;;;;;;14.00;99.90;;;;;;4989175;28;20567;-68
2022/09/15 07:58:20;;;;;;;;;;;14.10;99.90;;;;;;4995939;28;19925;-77
2022/09/15 08:00:47;;;;;;;;;;;14.10;99.90;;;;;;5000198;28;20237;-70
2022/09/15 08:03:15;;;;;;;;;;;14.00;99.90;;;;;;4996126;28;20356;-66
2022/09/15 08:05:42;;;;;;;;;;;14.00;99.90;;;;;;4989527;28;19925;-68
2022/09/15 08:08:11;;;;;;;;;;;13.90;99.90;;;;;;4989713;28;19921;-65
2022/09/15 08:10:39;;;;;;;;;;;13.80;99.90;;;;;;4995309;28;20063;-64
2022/09/15 08:13:07;;;;;;;;;;;13.70;99.90;;;;;;4988569;28;19918;-66
2022/09/15 08:15:34;;;;;;;;;;;13.70;99.90;;;;;;4999135;28;19941;-65
2022/09/15 08:18:01;;;;;;;;;;;13.60;99.90;;;;;;4992690;28;20021;-63
2022/09/15 08:20:28;;;;;;;;;;;13.50;99.90;;;;;;4991846;28;19917;-65
2022/09/15 08:22:54;;;;;;;;;;;13.40;99.90;;;;;;4988371;28;20398;-65
2022/09/15 08:25:21;;;;;;;;;;;13.30;99.90;;;;;;4991119;28;19934;-64
2022/09/15 08:27:48;;;;;;;;;;;13.30;99.90;;;;;;5001495;28;20170;-67
2022/09/15 08:30:15;;;;;;;;;;;13.20;99.90;;;;;;4988646;28;19918;-64
2022/09/15 08:32:42;;;;;;;;;;;13.20;99.90;;;;;;4992739;28;20475;-66
2022/09/15 08:35:08;;;;;;;;;;;13.20;99.90;;;;;;4986788;28;19917;-67
2022/09/15 08:37:35;;;;;;;;;;;13.20;99.90;;;;;;4994586;28;19928;-66
2022/09/15 08:40:02;;;;;;;;;;;13.20;99.90;;;;;;4985612;28;19921;-68
2022/09/15 08:42:30;;;;;;;;;;;13.20;99.90;;;;;;4990920;28;19957;-67
2022/09/15 08:45:00;;;;;;;;;;;13.20;99.90;;;;;;4996752;28;20005;-64
2022/09/15 08:47:36;;;;;;;;;;;13.20;99.90;;;;;;4987647;28;19957;-66
2022/09/15 08:50:21;;;;;;;;;;;13.20;99.90;;;;;;4985705;28;19925;-64
2022/09/15 08:53:01;;;;;;;;;;;13.30;99.90;;;;;;4989032;28;19928;-64
2022/09/15 08:55:43;;;;;;;;;;;13.40;99.90;;;;;;4987612;28;19980;-66
2022/09/15 08:58:12;;;;;;;;;;;13.50;99.90;;;;;;4989531;28;19972;-65
2022/09/15 09:00:40;;;;;;;;;;;13.50;99.90;;;;;;4986678;28;19998;-64
2022/09/15 09:03:17;;;;;;;;;;;13.50;99.90;;;;;;4994487;28;20121;-64
2022/09/15 09:05:44;;;;;;;;;;;13.50;99.90;;;;;;4990912;28;20343;-64
2022/09/15 09:08:11;;;;;;;;;;;13.60;99.90;;;;;;4994357;28;20059;-64
2022/09/15 09:10:47;;;;;;;;;;;13.70;99.90;;;;;;4998189;28;19925;-70
2022/09/15 09:13:22;;;;;;;;;;;13.90;99.90;;;;;;4992990;28;19933;-67
2022/09/15 09:15:49;;;;;;;;;;;14.10;99.90;;;;;;4996978;28;20283;-66
2022/09/15 09:18:18;;;;;;;;;;;14.30;99.90;;;;;;5004904;28;19917;-66
2022/09/15 09:21:00;;;;;;;;;;;14.30;99.90;;;;;;5004742;28;20004;-64
2022/09/15 09:23:28;;;;;;;;;;;14.40;99.90;;;;;;4993152;28;20016;-69
2022/09/15 09:25:56;;;;;;;;;;;14.40;99.90;;;;;;5001302;28;19917;-65
2022/09/15 09:28:22;;;;;;;;;;;14.40;99.90;;;;;;4999124;28;19931;-66
2022/09/15 09:30:49;;;;;;;;;;;14.60;99.90;;;;;;4994440;28;20279;-68
2022/09/15 09:33:29;;;;;;;;;;;14.70;99.90;;;;;;5008246;28;19918;-65
2022/09/15 09:35:58;;;;;;;;;;;14.70;99.90;;;;;;4993484;28;20802;-66
2022/09/15 09:38:28;;;;;;;;;;;14.70;99.90;;;;;;4996296;28;19918;-69
2022/09/15 09:40:55;;;;;;;;;;;14.80;99.90;;;;;;5005195;28;19957;-65
2022/09/15 09:43:28;;;;;;;;;;;14.80;99.90;;;;;;4990002;28;19961;-68
2022/09/15 09:45:55;;;;;;;;;;;14.70;99.90;;;;;;4990458;28;19924;-66
2022/09/15 09:48:23;;;;;;;;;;;14.50;99.90;;;;;;4990072;28;19921;-68
2022/09/15 09:50:49;;;;;;;;;;;14.50;99.90;;;;;;5002076;28;20415;-75
2022/09/15 09:53:22;;;;;;;;;;;14.50;99.90;;;;;;5003741;28;20578;-65
2022/09/15 09:55:49;;;;;;;;;;;14.60;99.90;;;;;;4994596;28;19924;-66
2022/09/15 09:58:17;;;;;;;;;;;14.70;99.90;;;;;;4996333;28;20332;-65
2022/09/15 10:00:44;;;;;;;;;;;14.60;99.90;;;;;;4998645;28;19921;-66
2022/09/15 10:03:18;;;;;;;;;;;14.60;99.90;;;;;;4995098;28;20001;-65
2022/09/15 10:05:59;;;;;;;;;;;14.60;99.90;;;;;;5000942;28;19948;-64
2022/09/15 10:08:26;;;;;;;;;;;14.70;99.90;;;;;;4998763;28;20012;-65
2022/09/15 10:10:55;;;;;;;;;;;14.90;99.90;;;;;;4995942;28;20283;-65
2022/09/15 10:13:22;;;;;;;;;;;15.00;99.90;;;;;;5000504;28;19984;-66
2022/09/15 10:15:54;;;;;;;;;;;15.00;99.90;;;;;;5007463;28;19917;-64
2022/09/15 10:18:26;;;;;;;;;;;15.00;99.90;;;;;;4994611;28;19922;-69
2022/09/15 10:20:53;;;;;;;;;;;15.00;99.90;;;;;;4998500;28;19935;-69
2022/09/15 10:23:20;;;;;;;;;;;15.00;99.90;;;;;;4995398;28;19917;-69
2022/09/15 10:25:47;;;;;;;;;;;15.00;99.90;;;;;;4998141;28;20084;-65
2022/09/15 10:28:25;;;;;;;;;;;15.10;99.90;;;;;;5005505;28;19922;-65
2022/09/15 10:31:06;;;;;;;;;;;15.10;99.90;;;;;;5005843;28;19928;-66
2022/09/15 10:33:33;;;;;;;;;;;15.10;99.90;;;;;;5002942;28;20324;-67
2022/09/15 10:36:03;;;;;;;;;;;15.10;99.90;;;;;;4990225;28;19917;-74
2022/09/15 10:38:51;;;;;;;;;;;15.20;99.90;;;;;;4992933;28;19932;-70
2022/09/15 10:41:24;;;;;;;;;;;15.40;99.90;;;;;;5000991;28;19921;-69
2022/09/15 10:43:57;;;;;;;;;;;15.50;99.90;;;;;;4999028;28;20032;-70
2022/09/15 10:46:29;;;;;;;;;;;15.70;99.90;;;;;;4994350;28;19928;-65
2022/09/15 10:49:14;;;;;;;;;;;15.70;99.90;;;;;;5005934;28;20033;-71
2022/09/15 10:51:46;;;;;;;;;;;15.60;99.90;;;;;;5004857;28;20483;-67
2022/09/15 10:54:44;;;;;;;;;;;15.60;99.90;;;;;;4999060;28;19936;-65
2022/09/15 10:57:22;;;;;;;;;;;15.60;99.90;;;;;;4995862;28;19917;-69
2022/09/15 11:00:01;;;;;;;;;;;15.50;99.90;;;;;;5004302;28;20814;-68
2022/09/15 11:02:47;;;;;;;;;;;15.60;99.90;;;;;;5000555;28;19987;-67
2022/09/15 11:05:16;;;;;;;;;;;15.60;99.90;;;;;;4998536;28;19949;-66
2022/09/15 11:07:57;;;;;;;;;;;15.80;99.90;;;;;;5003492;28;20531;-65
2022/09/15 11:10:38;;;;;;;;;;;15.90;99.90;;;;;;5001859;28;20385;-70
2022/09/15 11:13:10;;;;;;;;;;;15.90;99.90;;;;;;4997587;28;19922;-71
2022/09/15 11:15:37;;;;;;;;;;;15.90;99.90;;;;;;4997186;28;19930;-68
2022/09/15 11:18:13;;;;;;;;;;;15.90;99.90;;;;;;4991833;28;19918;-67
2022/09/15 11:20:49;;;;;;;;;;;16.10;99.90;;;;;;4998801;28;20096;-66
2022/09/15 11:23:19;;;;;;;;;;;16.20;99.90;;;;;;5003306;28;19918;-65
2022/09/15 11:25:49;;;;;;;;;;;16.20;99.90;;;;;;5001418;28;20036;-67
2022/09/15 11:28:26;;;;;;;;;;;16.30;99.90;;;;;;5005095;28;19918;-65
2022/09/15 11:31:07;;;;;;;;;;;16.20;99.90;;;;;;4997405;28;19917;-66
2022/09/15 11:33:43;;;;;;;;;;;16.10;99.90;;;;;;4996744;28;19918;-64
2022/09/15 11:36:14;;;;;;;;;;;15.90;99.90;;;;;;5000387;28;19917;-67
2022/09/15 11:38:46;;;;;;;;;;;15.80;99.90;;;;;;5001943;28;19993;-66
2022/09/15 11:41:32;;;;;;;;;;;15.80;99.90;;;;;;4995693;28;20311;-70
2022/09/15 11:44:19;;;;;;;;;;;15.90;99.90;;;;;;4999591;28;19925;-66
2022/09/15 11:47:07;;;;;;;;;;;16.10;99.90;;;;;;4997410;28;20468;-67
2022/09/15 11:49:43;;;;;;;;;;;16.00;99.90;;;;;;4995828;28;20012;-74
2022/09/15 11:52:37;;;;;;;;;;;16.00;99.90;;;;;;4996447;28;20355;-65
2022/09/15 11:55:10;;;;;;;;;;;15.90;99.90;;;;;;4996620;28;20092;-69
2022/09/15 11:57:40;;;;;;;;;;;15.80;99.90;;;;;;5001100;28;19921;-71
2022/09/15 12:00:10;;;;;;;;;;;15.90;99.90;;;;;;5023114;28;19960;-67
2022/09/15 12:02:42;;;;;;;;;;;16.10;99.90;;;;;;4995355;28;19922;-72
2022/09/15 12:05:13;;;;;;;;;;;16.10;99.90;;;;;;4991811;28;20484;-65
2022/09/15 12:08:00;;;;;;;;;;;16.10;99.90;;;;;;4998503;28;20521;-67
2022/09/15 12:10:34;;;;;;;;;;;16.20;99.90;;;;;;4996022;28;19922;-66
2022/09/15 12:13:01;;;;;;;;;;;16.30;99.90;;;;;;4997228;28;19917;-65
2022/09/15 12:15:28;;;;;;;;;;;16.30;99.90;;;;;;4998536;28;19929;-65
2022/09/15 12:18:06;;;;;;;;;;;16.20;99.90;;;;;;4993293;28;19921;-71
2022/09/15 12:21:03;;;;;;;;;;;16.20;99.90;;;;;;4991736;28;20358;-75
2022/09/15 12:24:09;;;;;;;;;;;16.00;99.90;;;;;;5024588;28;20415;-67
2022/09/15 12:26:36;;;;;;;;;;;16.00;99.90;;;;;;4971519;28;19930;-68
2022/09/15 12:29:23;;;;;;;;;;;16.30;99.90;;;;;;4970566;28;19922;-66
2022/09/15 12:32:09;;;;;;;;;;;16.50;99.90;;;;;;4985406;28;19928;-69
2022/09/15 12:34:37;;;;;;;;;;;16.60;99.90;;;;;;5002153;28;19956;-68
2022/09/15 12:37:13;;;;;;;;;;;16.60;99.90;;;;;;5001077;28;19921;-68
2022/09/15 12:39:44;;;;;;;;;;;16.60;99.90;;;;;;4998271;28;19925;-67
2022/09/15 12:42:17;;;;;;;;;;;16.60;99.90;;;;;;4995955;28;19917;-67
2022/09/15 12:44:56;;;;;;;;;;;16.40;99.90;;;;;;5001214;28;19936;-65
2022/09/15 12:47:34;;;;;;;;;;;16.20;99.90;;;;;;5001784;28;20601;-72
2022/09/15 12:50:04;;;;;;;;;;;16.10;99.90;;;;;;4973865;28;19917;-65
2022/09/15 12:52:40;;;;;;;;;;;16.10;99.90;;;;;;4999244;28;19968;-65
2022/09/15 12:55:14;;;;;;;;;;;16.10;99.90;;;;;;4995545;28;19917;-65
2022/09/15 12:57:41;;;;;;;;;;;16.10;99.90;;;;;;4992135;28;19917;-66
2022/09/15 13:00:21;;;;;;;;;;;16.00;99.90;;;;;;5002267;28;20330;-66
2022/09/15 13:02:51;;;;;;;;;;;16.00;99.90;;;;;;5000493;28;19961;-65
2022/09/15 13:05:37;;;;;;;;;;;16.00;99.90;;;;;;5003896;28;19936;-71
2022/09/15 13:08:09;;;;;;;;;;;16.10;99.90;;;;;;4991627;28;20375;-68
2022/09/15 13:10:41;;;;;;;;;;;16.00;99.90;;;;;;4990253;28;20263;-66
2022/09/15 13:13:16;;;;;;;;;;;16.00;99.90;;;;;;5002590;28;19941;-65
2022/09/15 13:15:45;;;;;;;;;;;15.90;99.90;;;;;;4998772;28;19968;-65
2022/09/15 13:18:13;;;;;;;;;;;16.10;99.90;;;;;;4990822;28;19928;-65
2022/09/15 13:20:45;;;;;;;;;;;16.20;99.90;;;;;;4992565;28;20012;-65
2022/09/15 13:23:13;;;;;;;;;;;16.30;99.90;;;;;;4999673;28;20275;-68
2022/09/15 13:25:42;;;;;;;;;;;16.20;99.90;;;;;;4996872;28;19928;-65
2022/09/15 13:28:10;;;;;;;;;;;16.10;99.90;;;;;;4993134;28;19988;-67
2022/09/15 13:30:51;;;;;;;;;;;15.90;99.90;;;;;;4991801;28;20288;-65
2022/09/15 13:33:36;;;;;;;;;;;15.80;99.90;;;;;;4992304;28;19918;-65
2022/09/15 13:36:23;;;;;;;;;;;15.60;99.90;;;;;;4993934;28;20417;-67
2022/09/15 13:39:09;;;;;;;;;;;15.40;99.90;;;;;;4996093;28;19924;-65
2022/09/15 13:41:36;;;;;;;;;;;15.30;99.90;;;;;;4990845;28;19918;-67
2022/09/15 13:44:05;;;;;;;;;;;15.20;99.90;;;;;;4998114;28;19945;-64
2022/09/15 13:46:41;;;;;;;;;;;15.10;99.90;;;;;;4993651;28;19979;-64
2022/09/15 13:49:27;;;;;;;;;;;14.90;99.90;;;;;;4993228;28;19922;-66
2022/09/15 13:51:59;;;;;;;;;;;14.70;99.90;;;;;;4986554;28;20008;-68
2022/09/15 13:54:26;;;;;;;;;;;14.30;99.90;;;;;;4989303;28;20467;-65
2022/09/15 13:56:57;;;;;;;;;;;13.90;99.90;;;;;;4986827;28;19965;-65
2022/09/15 13:59:27;;;;;;;;;;;13.60;99.90;;;;;;4996042;28;20015;-66
2022/09/15 14:01:55;;;;;;;;;;;13.40;99.90;;;;;;4991699;28;19949;-63
2022/09/15 14:04:23;;;;;;;;;;;13.20;99.90;;;;;;4991848;28;19959;-64
2022/09/15 14:06:51;;;;;;;;;;;13.10;99.90;;;;;;4998844;28;20016;-63
2022/09/15 14:09:28;;;;;;;;;;;12.90;99.90;;;;;;4996789;28;19920;-66
2022/09/15 14:11:57;;;;;;;;;;;12.70;99.90;;;;;;4992787;28;21222;-63
2022/09/15 14:14:35;;;;;;;;;;;12.70;99.90;;;;;;5000683;28;20025;-64
2022/09/15 14:17:01;;;;;;;;;;;12.60;99.90;;;;;;4993415;28;19936;-64
2022/09/15 14:19:32;;;;;;;;;;;12.60;99.90;;;;;;4994075;28;19921;-68
2022/09/15 14:21:59;;;;;;;;;;;12.50;99.90;;;;;;4998031;28;19944;-65
2022/09/15 14:24:30;;;;;;;;;;;12.60;99.90;;;;;;4998009;28;19917;-63
2022/09/15 14:27:06;;;;;;;;;;;12.60;99.90;;;;;;4998471;28;20228;-64
2022/09/15 14:29:37;;;;;;;;;;;12.70;99.90;;;;;;4992692;28;19944;-63
2022/09/15 14:32:04;;;;;;;;;;;12.70;99.90;;;;;;4997134;28;19938;-63
2022/09/15 14:34:34;;;;;;;;;;;12.80;99.90;;;;;;4999459;28;19975;-62
2022/09/15 14:37:05;;;;;;;;;;;13.20;99.90;;;;;;4999304;28;20012;-64
2022/09/15 14:39:36;;;;;;;;;;;13.80;99.90;;;;;;4997596;28;20024;-63